Norwich, North Dakota
Current Conditions -  °F | °C
As of 7:54 AM on Saturday 25 Oct 2014 (Local Time) from KMOT Reporting Station
Clear Clear  
Wind Chill: 30°   Ceiling: Unl
Heat Index: 36°   Visibility: 10mi
Dew Point: 29°   Wind: 8mph
Humidity: 76%   Direction: 230°SW
Pressure: 30.1"   Gusts: NA
Location:  48.25°N, 100.99°W
Report Text: KMOT 251254Z 23007KT 10SM CLR 02/M02 A3010 RMK AO2 SLP205 T00221017
Loading
Personal Weather Stations






























Interactive Weather Map
Tropical Storm Tracking
New forecast layout! Learn more

10-Day Weather Forecast

Advertisements
Track Severe Weather on mobile